createdAt,value
2017-12-09T00:01:06.484Z,95.30
2017-12-09T00:03:33.380Z,95.40
2017-12-09T00:06:01.015Z,95.80
2017-12-09T00:08:27.941Z,95.80
2017-12-09T00:10:54.835Z,95.20
2017-12-09T00:13:21.719Z,95.40
2017-12-09T00:15:48.619Z,95.20
2017-12-09T00:18:16.259Z,94.70
2017-12-09T00:20:43.157Z,94.60
2017-12-09T00:23:10.098Z,94.70
2017-12-09T00:25:37.019Z,94.40
2017-12-09T00:28:04.716Z,94.30
2017-12-09T00:30:31.616Z,94.30
2017-12-09T00:32:58.532Z,94.30
2017-12-09T00:35:25.425Z,94.50
2017-12-09T00:37:53.083Z,95.00
2017-12-09T00:40:20.012Z,94.60
2017-12-09T00:42:46.904Z,94.70
2017-12-09T00:45:13.836Z,94.20
2017-12-09T00:47:41.453Z,93.60
2017-12-09T00:50:08.328Z,93.60
2017-12-09T00:52:35.968Z,94.30
2017-12-09T00:55:02.885Z,94.30
2017-12-09T00:57:29.781Z,94.60
2017-12-09T00:59:57.625Z,94.60
2017-12-09T01:02:24.495Z,94.50
2017-12-09T01:04:51.349Z,94.60
2017-12-09T01:07:18.259Z,94.40
2017-12-09T01:09:45.124Z,94.40
2017-12-09T01:12:12.027Z,94.40
2017-12-09T01:14:38.887Z,94.40
2017-12-09T01:17:18.115Z,94.30
2017-12-09T01:19:45.161Z,94.40
2017-12-09T01:22:12.752Z,94.30
2017-12-09T01:24:40.379Z,94.60
2017-12-09T01:27:07.529Z,94.60
2017-12-09T01:29:34.473Z,94.70
2017-12-09T01:32:01.416Z,94.80
2017-12-09T01:34:28.335Z,94.80
2017-12-09T01:36:55.260Z,94.60
2017-12-09T01:39:22.175Z,94.70
2017-12-09T01:41:49.072Z,94.40
2017-12-09T01:44:15.989Z,94.40
2017-12-09T01:46:43.552Z,94.60
2017-12-09T01:49:10.937Z,94.90
2017-12-09T01:51:37.861Z,94.70
2017-12-09T01:54:04.864Z,94.90
2017-12-09T01:56:31.769Z,94.90
2017-12-09T01:58:58.699Z,94.70
2017-12-09T02:01:25.640Z,94.30
2017-12-09T02:03:53.263Z,93.50
2017-12-09T02:06:20.975Z,94.30
2017-12-09T02:08:47.872Z,94.20
2017-12-09T02:11:14.768Z,94.40
2017-12-09T02:13:41.712Z,94.40
2017-12-09T02:16:08.643Z,94.60
2017-12-09T02:18:35.640Z,93.90
2017-12-09T02:21:02.552Z,94.00
2017-12-09T02:23:29.514Z,94.50
2017-12-09T02:25:56.427Z,94.40
2017-12-09T02:28:23.363Z,94.30
2017-12-09T02:30:51.002Z,94.50
2017-12-09T02:33:18.676Z,93.80
2017-12-09T02:35:46.352Z,93.40
2017-12-09T02:38:14.047Z,93.30
2017-12-09T02:40:40.979Z,93.30
2017-12-09T02:43:07.935Z,93.60
2017-12-09T02:45:34.823Z,93.80
2017-12-09T02:48:02.688Z,94.40
2017-12-09T02:50:30.346Z,94.20
2017-12-09T02:52:57.997Z,94.10
2017-12-09T02:55:24.903Z,94.10
2017-12-09T02:57:51.820Z,94.10
2017-12-09T03:00:18.752Z,93.70
2017-12-09T03:02:45.692Z,93.30
2017-12-09T03:05:13.352Z,94.10
2017-12-09T03:07:41.003Z,94.30
2017-12-09T03:10:08.730Z,93.80
2017-12-09T03:12:35.648Z,93.80
2017-12-09T03:15:02.576Z,93.30
2017-12-09T03:17:29.491Z,94.00
2017-12-09T03:19:56.463Z,93.80
2017-12-09T03:22:23.398Z,94.10
2017-12-09T03:24:51.104Z,93.00
2017-12-09T03:27:18.012Z,93.00
2017-12-09T03:29:45.664Z,93.90
2017-12-09T03:32:12.572Z,93.90
2017-12-09T03:34:39.504Z,94.20
2017-12-09T03:37:06.463Z,93.90
2017-12-09T03:39:33.347Z,94.10
2017-12-09T03:42:00.315Z,93.80
2017-12-09T03:44:27.226Z,94.30
2017-12-09T03:46:54.912Z,94.10
2017-12-09T03:49:22.572Z,93.70
2017-12-09T03:51:49.543Z,93.70
2017-12-09T03:54:16.483Z,94.30
2017-12-09T03:56:43.418Z,93.80
2017-12-09T03:59:10.368Z,94.10
2017-12-09T04:01:37.296Z,94.00
2017-12-09T04:04:04.224Z,93.00
2017-12-09T04:06:31.914Z,94.10
2017-12-09T04:08:58.843Z,94.10
2017-12-09T04:11:26.502Z,93.00
2017-12-09T04:13:53.402Z,93.00
2017-12-09T04:16:20.410Z,93.80
2017-12-09T04:18:47.371Z,93.10
2017-12-09T04:21:14.276Z,93.00
2017-12-09T04:23:41.232Z,93.60
2017-12-09T04:26:08.172Z,94.00
2017-12-09T04:28:35.134Z,94.00
2017-12-09T04:31:02.336Z,94.10
2017-12-09T04:33:29.228Z,93.50
2017-12-09T04:35:56.140Z,93.80
2017-12-09T04:38:23.117Z,94.00
2017-12-09T04:40:50.760Z,94.00
2017-12-09T04:43:18.455Z,94.30
2017-12-09T04:45:45.408Z,94.30
2017-12-09T04:48:12.311Z,94.30
2017-12-09T04:50:40.077Z,94.00
2017-12-09T04:53:07.719Z,94.10
2017-12-09T04:55:34.601Z,94.10
2017-12-09T04:58:01.571Z,94.90
2017-12-09T05:00:28.516Z,94.30
2017-12-09T05:02:55.595Z,94.60
2017-12-09T05:05:22.515Z,94.50
2017-12-09T05:07:49.456Z,95.00
2017-12-09T05:10:16.376Z,94.50
2017-12-09T05:12:43.315Z,95.00
2017-12-09T05:15:10.300Z,94.40
2017-12-09T05:17:37.326Z,94.90
2017-12-09T05:20:04.285Z,94.30
2017-12-09T05:22:31.980Z,94.30
2017-12-09T05:24:59.666Z,94.60
2017-12-09T05:27:26.623Z,94.20
2017-12-09T05:29:53.536Z,94.00
2017-12-09T05:32:21.249Z,93.20
2017-12-09T05:34:49.041Z,93.50
2017-12-09T05:37:16.777Z,93.90
2017-12-09T05:39:43.738Z,93.90
2017-12-09T05:42:10.655Z,94.20
2017-12-09T05:44:37.597Z,94.20
2017-12-09T05:47:04.550Z,93.80
2017-12-09T05:49:31.481Z,94.10
2017-12-09T05:51:59.180Z,94.30
2017-12-09T05:54:26.063Z,94.30
2017-12-09T05:56:52.995Z,94.60
2017-12-09T05:59:20.712Z,93.90
2017-12-09T06:01:47.649Z,93.90
2017-12-09T06:04:14.611Z,93.40
2017-12-09T06:06:41.542Z,94.20
2017-12-09T06:09:09.184Z,94.40
2017-12-09T06:11:36.837Z,94.20
2017-12-09T06:14:03.760Z,94.20
2017-12-09T06:16:31.517Z,94.00
2017-12-09T06:18:58.410Z,93.80
2017-12-09T06:21:25.328Z,93.40
2017-12-09T06:23:54.352Z,93.30
2017-12-09T06:26:22.196Z,93.40
2017-12-09T06:28:49.919Z,93.30
2017-12-09T06:31:16.827Z,93.20
2017-12-09T06:33:44.438Z,93.30
2017-12-09T06:36:11.399Z,93.20
2017-12-09T06:38:39.368Z,93.30
2017-12-09T06:41:07.279Z,93.50
2017-12-09T06:43:34.271Z,93.20
2017-12-09T06:46:01.155Z,93.40
2017-12-09T06:48:28.106Z,93.50
2017-12-09T06:50:55.032Z,93.30
2017-12-09T06:53:23.090Z,92.70
2017-12-09T06:55:50.831Z,93.30
2017-12-09T06:58:17.767Z,93.20
2017-12-09T07:00:45.404Z,93.40
2017-12-09T07:03:12.351Z,93.50
2017-12-09T07:05:39.305Z,93.10
2017-12-09T07:08:06.234Z,93.80
2017-12-09T07:10:33.155Z,93.90
2017-12-09T07:13:00.945Z,94.10
2017-12-09T07:15:27.848Z,94.10
2017-12-09T07:17:55.527Z,94.30
2017-12-09T07:20:23.214Z,94.40
2017-12-09T07:22:50.453Z,94.40
2017-12-09T07:25:17.471Z,94.50
2017-12-09T07:27:45.189Z,94.40
2017-12-09T07:30:12.224Z,94.40
2017-12-09T07:32:39.143Z,94.10
2017-12-09T07:35:06.160Z,94.20
2017-12-09T07:37:33.107Z,94.00
2017-12-09T07:40:00.160Z,93.40
2017-12-09T07:42:27.663Z,93.40
2017-12-09T07:44:54.924Z,92.90
2017-12-09T07:47:21.915Z,93.30
2017-12-09T07:49:48.950Z,92.90
2017-12-09T07:52:15.898Z,93.00
2017-12-09T07:54:43.236Z,92.80
2017-12-09T07:57:10.303Z,93.30
2017-12-09T07:59:37.239Z,93.60
2017-12-09T08:02:04.211Z,93.30
2017-12-09T08:04:32.184Z,93.50
2017-12-09T08:06:59.237Z,93.50
2017-12-09T08:09:26.162Z,93.50
2017-12-09T08:11:53.888Z,93.40
2017-12-09T08:14:20.830Z,93.30
2017-12-09T08:16:47.840Z,93.30
2017-12-09T08:19:15.516Z,93.00
2017-12-09T08:21:42.439Z,93.00
2017-12-09T08:24:09.361Z,92.50
2017-12-09T08:26:37.048Z,92.10
2017-12-09T08:29:04.017Z,92.10
2017-12-09T08:31:30.953Z,91.60
2017-12-09T08:33:57.855Z,91.40
2017-12-09T08:36:24.756Z,91.30
2017-12-09T08:38:51.703Z,90.70
2017-12-09T08:41:18.663Z,90.80
2017-12-09T08:43:45.596Z,88.40
2017-12-09T08:46:12.547Z,86.50
2017-12-09T08:48:40.263Z,87.30
2017-12-09T08:51:07.920Z,87.30
2017-12-09T08:53:35.714Z,88.80
2017-12-09T08:56:02.643Z,88.00
2017-12-09T08:58:29.591Z,84.60
2017-12-09T09:00:57.251Z,86.10
2017-12-09T09:03:26.515Z,87.10
2017-12-09T09:05:54.656Z,87.10
2017-12-09T09:08:21.550Z,84.30
2017-12-09T09:10:48.471Z,83.20
2017-12-09T09:13:15.399Z,86.60
2017-12-09T09:15:42.295Z,84.10
2017-12-09T09:18:09.261Z,84.30
2017-12-09T09:20:36.899Z,81.40
2017-12-09T09:23:04.563Z,82.30
2017-12-09T09:25:31.502Z,82.30
2017-12-09T09:27:59.171Z,75.60
2017-12-09T09:30:26.820Z,75.80
2017-12-09T09:32:53.748Z,75.80
2017-12-09T09:35:20.737Z,75.10
2017-12-09T09:37:47.852Z,75.40
2017-12-09T09:40:14.779Z,77.30
2017-12-09T09:42:41.700Z,74.90
2017-12-09T09:45:08.640Z,70.90
2017-12-09T09:47:35.579Z,71.40
2017-12-09T09:50:03.229Z,67.20
2017-12-09T09:52:30.196Z,67.20
2017-12-09T09:54:57.124Z,67.50
2017-12-09T09:57:24.047Z,69.10
2017-12-09T09:59:51.697Z,68.20
2017-12-09T10:02:18.683Z,68.20
2017-12-09T10:04:45.612Z,65.70
2017-12-09T10:07:12.580Z,67.80
2017-12-09T10:10:42.793Z,70.70
2017-12-09T10:13:09.756Z,62.10
2017-12-09T10:15:36.823Z,58.70
2017-12-09T10:18:03.749Z,61.70
2017-12-09T10:20:30.678Z,66.00
2017-12-09T10:22:57.600Z,65.60
2017-12-09T10:25:25.268Z,63.00
2017-12-09T10:27:52.967Z,63.30
2017-12-09T10:30:19.876Z,63.20
2017-12-09T10:32:47.550Z,62.60
2017-12-09T10:35:14.456Z,62.60
2017-12-09T10:37:41.372Z,59.30
2017-12-09T10:40:08.309Z,59.80
2017-12-09T10:42:35.232Z,57.20
2017-12-09T10:45:02.143Z,55.50
2017-12-09T10:47:29.060Z,56.50
2017-12-09T10:49:56.037Z,54.70
2017-12-09T10:52:23.679Z,54.00
2017-12-09T10:54:50.592Z,54.00
2017-12-09T10:57:17.535Z,55.60
2017-12-09T10:59:44.432Z,52.90
2017-12-09T11:02:12.127Z,48.40
2017-12-09T11:04:39.040Z,48.40
2017-12-09T11:07:06.716Z,46.40
2017-12-09T11:09:33.607Z,46.30
2017-12-09T11:12:00.514Z,49.70
2017-12-09T11:14:27.425Z,47.90
2017-12-09T11:16:54.339Z,48.80
2017-12-09T11:19:21.419Z,50.10
2017-12-09T11:21:49.075Z,47.70
2017-12-09T11:24:16.005Z,47.60
2017-12-09T11:26:42.988Z,47.40
2017-12-09T11:29:09.900Z,48.00
2017-12-09T11:31:36.828Z,48.70
2017-12-09T11:34:04.007Z,47.40
2017-12-09T11:36:30.955Z,47.10
2017-12-09T11:38:57.846Z,47.70
2017-12-09T11:41:24.775Z,47.90
2017-12-09T11:43:51.723Z,47.40
2017-12-09T11:46:18.667Z,46.50
2017-12-09T11:48:45.624Z,47.90
2017-12-09T11:51:12.596Z,46.60
2017-12-09T11:53:39.540Z,47.60
2017-12-09T11:56:06.521Z,46.20
2017-12-09T11:58:33.488Z,45.10
2017-12-09T12:01:00.382Z,44.60
2017-12-09T12:03:27.309Z,44.80
2017-12-09T12:05:54.227Z,45.30
2017-12-09T12:08:21.916Z,44.40
2017-12-09T12:10:48.843Z,44.40
2017-12-09T12:13:15.783Z,44.00
2017-12-09T12:15:42.747Z,44.50
2017-12-09T12:18:09.944Z,43.00
2017-12-09T12:20:37.741Z,39.50
2017-12-09T12:23:04.720Z,39.50
2017-12-09T12:25:31.995Z,40.00
2017-12-09T12:27:59.120Z,41.10
2017-12-09T12:30:26.853Z,40.50
2017-12-09T12:32:54.035Z,40.80
2017-12-09T12:35:21.254Z,40.20
2017-12-09T12:38:03.364Z,39.90
2017-12-09T12:40:30.329Z,38.70
2017-12-09T12:42:57.250Z,37.50
2017-12-09T12:45:24.155Z,38.00
2017-12-09T12:47:52.466Z,39.00
2017-12-09T12:50:19.420Z,38.90
2017-12-09T12:52:46.389Z,38.80
2017-12-09T12:55:13.344Z,40.80
2017-12-09T12:57:40.390Z,40.90
2017-12-09T13:00:08.144Z,41.80
2017-12-09T13:02:35.080Z,41.80
2017-12-09T13:05:02.020Z,40.40
2017-12-09T13:07:28.950Z,42.30
2017-12-09T13:09:55.873Z,42.60
2017-12-09T13:12:23.644Z,43.90
2017-12-09T13:14:51.303Z,45.20
2017-12-09T13:17:19.001Z,42.80
2017-12-09T13:19:46.021Z,42.70
2017-12-09T13:22:13.091Z,45.80
2017-12-09T13:24:39.993Z,45.50
2017-12-09T13:36:36.908Z,44.80
2017-12-09T13:39:03.855Z,46.10
2017-12-09T13:41:30.771Z,43.30
2017-12-09T13:43:57.662Z,45.70
2017-12-09T13:46:24.593Z,43.60
2017-12-09T13:48:51.518Z,44.90
2017-12-09T13:51:18.406Z,43.70
2017-12-09T13:53:45.348Z,43.90
2017-12-09T13:56:12.579Z,45.20
2017-12-09T13:58:40.239Z,45.40
2017-12-09T14:01:07.239Z,45.30
2017-12-09T14:03:34.119Z,44.70
2017-12-09T14:06:01.098Z,45.10
2017-12-09T14:08:28.689Z,45.10
2017-12-09T14:10:55.648Z,44.70
2017-12-09T14:13:22.939Z,45.20
2017-12-09T14:15:49.894Z,44.20
2017-12-09T14:18:16.887Z,43.90
2017-12-09T14:20:44.703Z,46.50
2017-12-09T14:23:11.908Z,46.50
2017-12-09T14:25:38.935Z,45.10
2017-12-09T14:28:05.775Z,44.80
2017-12-09T14:30:32.643Z,44.70
2017-12-09T14:32:59.517Z,45.10
2017-12-09T14:35:27.319Z,46.30
2017-12-09T14:37:54.174Z,46.30
2017-12-09T14:40:21.811Z,46.50
2017-12-09T14:42:48.734Z,46.50
2017-12-09T14:45:15.638Z,45.50
2017-12-09T14:47:42.498Z,46.40
2017-12-09T14:50:09.354Z,46.40
2017-12-09T14:52:36.994Z,46.60
2017-12-09T14:55:04.646Z,47.10
2017-12-09T14:57:31.542Z,47.10
2017-12-09T14:59:58.399Z,46.60
2017-12-09T15:02:25.275Z,47.40
2017-12-09T15:04:52.144Z,47.90
2017-12-09T15:07:19.768Z,46.90
2017-12-09T15:09:46.653Z,46.80
2017-12-09T15:12:20.618Z,47.50
2017-12-09T15:14:47.495Z,48.60
2017-12-09T15:17:14.375Z,47.50
2017-12-09T15:19:41.994Z,47.10
2017-12-09T15:22:09.607Z,47.70
2017-12-09T15:24:36.430Z,47.70
2017-12-09T15:27:03.314Z,47.90
2017-12-09T15:29:30.186Z,48.50
2017-12-09T15:31:57.918Z,48.50
2017-12-09T15:34:24.810Z,48.50
2017-12-09T15:36:51.894Z,49.00
2017-12-09T15:39:19.747Z,48.80
2017-12-09T15:41:46.622Z,49.00
2017-12-09T15:44:13.540Z,49.30
2017-12-09T15:46:40.455Z,49.30
2017-12-09T15:49:07.387Z,48.70
2017-12-09T15:51:34.991Z,50.00
2017-12-09T15:54:01.851Z,50.00
2017-12-09T15:56:28.775Z,49.50
2017-12-09T15:58:55.654Z,48.80
2017-12-09T16:01:22.566Z,48.80
2017-12-09T16:03:49.480Z,48.50
2017-12-09T16:06:16.391Z,49.00
2017-12-09T16:08:43.273Z,49.20
2017-12-09T16:11:11.003Z,49.40
2017-12-09T16:13:37.955Z,49.40
2017-12-09T16:16:04.822Z,49.60
2017-12-09T16:18:31.727Z,49.80
2017-12-09T16:20:58.614Z,49.70
2017-12-09T16:23:25.491Z,49.30
2017-12-09T16:25:52.452Z,49.80
2017-12-09T16:28:19.301Z,50.30
2017-12-09T16:30:46.211Z,50.40
2017-12-09T16:33:13.098Z,50.50
2017-12-09T16:35:40.003Z,49.60
2017-12-09T16:38:06.846Z,50.50
2017-12-09T16:40:33.730Z,50.20
2017-12-09T16:43:00.656Z,50.30
2017-12-09T16:45:27.550Z,50.30
2017-12-09T16:47:54.490Z,50.00
2017-12-09T16:50:22.120Z,50.50
2017-12-09T16:52:49.050Z,50.50
2017-12-09T16:55:16.007Z,50.90
2017-12-09T16:57:42.906Z,51.10
2017-12-09T17:00:09.808Z,51.70
2017-12-09T17:02:37.462Z,50.60
2017-12-09T17:05:05.114Z,49.80
2017-12-09T17:07:32.068Z,49.80
2017-12-09T17:09:58.983Z,50.30
2017-12-09T17:12:25.866Z,51.00
2017-12-09T17:14:53.549Z,50.60
2017-12-09T17:17:20.494Z,50.50
2017-12-09T17:19:47.381Z,51.90
2017-12-09T17:22:14.274Z,52.40
2017-12-09T17:24:41.963Z,52.30
2017-12-09T17:27:08.875Z,52.30
2017-12-09T17:29:36.502Z,54.10
2017-12-09T17:32:03.519Z,54.00
2017-12-09T17:34:30.439Z,54.00
2017-12-09T17:36:57.313Z,52.10
2017-12-09T17:39:24.240Z,52.80
2017-12-09T17:41:51.151Z,53.80
2017-12-09T17:44:18.777Z,52.70
2017-12-09T17:46:45.671Z,52.70
2017-12-09T17:49:13.310Z,53.90
2017-12-09T17:51:40.194Z,53.90
2017-12-09T17:54:07.805Z,52.60
2017-12-09T17:56:34.701Z,52.50
2017-12-09T17:59:01.620Z,53.50
2017-12-09T18:01:29.274Z,53.70
2017-12-09T18:03:56.155Z,53.60
2017-12-09T18:06:23.047Z,53.30
2017-12-09T18:08:50.763Z,55.00
2017-12-09T18:11:17.643Z,55.10
2017-12-09T18:13:44.511Z,56.30
2017-12-09T18:16:12.135Z,56.70
2017-12-09T18:18:39.047Z,56.70
2017-12-09T18:21:05.963Z,57.50
2017-12-09T18:23:33.228Z,58.20
2017-12-09T18:26:00.147Z,58.80
2017-12-09T18:28:27.016Z,59.50
2017-12-09T18:30:54.633Z,57.70
2017-12-09T18:33:21.536Z,57.70
2017-12-09T18:35:48.403Z,57.80
2017-12-09T18:38:15.314Z,58.00
2017-12-09T18:40:42.920Z,60.20
2017-12-09T18:43:09.823Z,60.20
2017-12-09T18:45:36.780Z,61.50
2017-12-09T18:48:04.392Z,63.20
2017-12-09T18:50:31.267Z,63.20
2017-12-09T18:52:58.190Z,63.60
2017-12-09T18:55:25.852Z,65.10
2017-12-09T18:57:52.739Z,65.00
2017-12-09T19:00:19.620Z,65.40
2017-12-09T19:02:46.495Z,65.60
2017-12-09T19:05:14.150Z,66.50
2017-12-09T19:07:41.772Z,67.50
2017-12-09T19:10:08.687Z,67.50
2017-12-09T19:12:35.618Z,67.70
2017-12-09T19:15:03.332Z,68.10
2017-12-09T19:17:30.899Z,69.70
2017-12-09T19:19:57.830Z,69.00
2017-12-09T19:22:24.727Z,69.30
2017-12-09T19:24:51.619Z,68.90
2017-12-09T19:27:18.519Z,69.90
2017-12-09T19:29:45.434Z,69.10
2017-12-09T19:32:12.309Z,70.00
2017-12-09T19:34:39.398Z,69.70
2017-12-09T19:37:06.280Z,70.60
2017-12-09T19:39:33.906Z,70.90
2017-12-09T19:42:00.802Z,70.90
2017-12-09T19:44:28.432Z,71.20
2017-12-09T19:46:55.343Z,71.20
2017-12-09T19:49:22.278Z,71.50
2017-12-09T19:51:49.215Z,71.50
2017-12-09T19:54:16.086Z,71.40
2017-12-09T19:56:43.155Z,71.20
2017-12-09T19:59:10.059Z,72.30
2017-12-09T20:01:36.930Z,71.80
2017-12-09T20:04:03.813Z,72.00
2017-12-09T20:06:30.714Z,70.50
2017-12-09T20:08:57.646Z,70.00
2017-12-09T20:11:24.515Z,68.70
2017-12-09T20:13:51.421Z,69.80
2017-12-09T20:16:18.343Z,68.40
2017-12-09T20:18:45.438Z,68.80
2017-12-09T20:21:12.330Z,69.80
2017-12-09T20:23:39.227Z,68.60
2017-12-09T20:26:06.160Z,68.70
2017-12-09T20:28:33.071Z,69.50
2017-12-09T20:31:00.690Z,69.50
2017-12-09T20:33:27.610Z,70.10
2017-12-09T20:35:54.507Z,69.70
2017-12-09T20:38:22.166Z,68.50
2017-12-09T20:40:49.815Z,69.40
2017-12-09T20:43:16.697Z,69.40
2017-12-09T20:45:44.314Z,70.00
2017-12-09T20:48:11.231Z,69.90
2017-12-09T20:50:38.859Z,69.60
2017-12-09T20:53:05.755Z,69.90
2017-12-09T20:55:32.653Z,69.90
2017-12-09T20:57:59.550Z,70.40
2017-12-09T21:00:27.214Z,70.30
2017-12-09T21:02:54.043Z,70.30
2017-12-09T21:05:20.970Z,70.40
2017-12-09T21:07:47.836Z,70.90
2017-12-09T21:10:14.723Z,70.50
2017-12-09T21:12:42.623Z,70.10
2017-12-09T21:15:09.510Z,70.10
2017-12-09T21:17:37.167Z,70.90
2017-12-09T21:20:04.818Z,71.00
2017-12-09T21:22:31.687Z,71.00
2017-12-09T21:24:58.699Z,71.00
2017-12-09T21:27:25.606Z,71.40
2017-12-09T21:29:52.529Z,71.80
2017-12-09T21:32:19.428Z,71.90
2017-12-09T21:34:46.307Z,71.20
2017-12-09T21:37:13.995Z,69.80
2017-12-09T21:39:41.610Z,70.10
2017-12-09T21:42:08.511Z,70.10
2017-12-09T21:44:35.398Z,69.90
2017-12-09T21:47:02.311Z,70.00
2017-12-09T21:49:29.212Z,70.10
2017-12-09T21:51:56.127Z,69.70
2017-12-09T21:54:23.013Z,69.20
2017-12-09T21:56:49.947Z,69.90
2017-12-09T21:59:17.586Z,69.90
2017-12-09T22:01:45.239Z,70.30
2017-12-09T22:04:12.194Z,70.30
2017-12-09T22:06:39.077Z,70.50
2017-12-09T22:09:06.015Z,70.40
2017-12-09T22:11:32.918Z,70.90
2017-12-09T22:13:59.795Z,70.70
2017-12-09T22:16:26.720Z,70.90
2017-12-09T22:18:53.682Z,69.70
2017-12-09T22:21:21.334Z,69.30
2017-12-09T22:23:48.971Z,69.80
2017-12-09T22:26:16.591Z,69.10
2017-12-09T22:28:43.475Z,69.20
2017-12-09T22:31:10.522Z,69.80
2017-12-09T22:33:37.399Z,69.70
2017-12-09T22:36:04.284Z,69.70
2017-12-09T22:38:31.185Z,69.60
2017-12-09T22:40:58.092Z,69.50
2017-12-09T22:43:24.996Z,69.70
2017-12-09T22:45:52.583Z,68.10
2017-12-09T22:48:19.511Z,68.10
2017-12-09T22:50:46.426Z,68.60
2017-12-09T22:53:13.350Z,68.60
2017-12-09T22:55:40.211Z,69.20
2017-12-09T22:58:07.099Z,69.70
2017-12-09T23:00:34.037Z,69.40
2017-12-09T23:03:00.944Z,69.80
2017-12-09T23:05:29.038Z,70.00
2017-12-09T23:07:55.907Z,70.50
2017-12-09T23:10:22.783Z,70.10
2017-12-09T23:12:49.719Z,70.80
2017-12-09T23:15:16.567Z,71.60
2017-12-09T23:17:43.450Z,71.00
2017-12-09T23:20:10.318Z,70.90
2017-12-09T23:22:37.203Z,71.00
2017-12-09T23:25:04.975Z,71.30
2017-12-09T23:27:32.606Z,71.70
2017-12-09T23:29:59.466Z,71.60
2017-12-09T23:32:27.115Z,71.80
2017-12-09T23:34:54.005Z,71.70
2017-12-09T23:37:20.922Z,71.60
2017-12-09T23:39:48.535Z,70.10
2017-12-09T23:42:15.426Z,69.70
2017-12-09T23:44:43.245Z,70.40
2017-12-09T23:47:10.153Z,70.40
2017-12-09T23:49:37.063Z,70.70
2017-12-09T23:52:03.962Z,70.10
2017-12-09T23:54:30.830Z,70.30
2017-12-09T23:56:57.724Z,70.10
2017-12-09T23:59:24.618Z,70.90
